sensor_id;sensor_type;location;lat;lon;timestamp;P1;durP1;ratioP1;P2;durP2;ratioP2
13366;SDS011;6752;52.612;13.630;2023-12-28T00:02:11;7.93;;;4.77;;
13366;SDS011;6752;52.612;13.630;2023-12-28T00:07:13;6.20;;;4.27;;
13366;SDS011;6752;52.612;13.630;2023-12-28T00:12:16;8.30;;;4.60;;
13366;SDS011;6752;52.612;13.630;2023-12-28T00:17:18;9.33;;;4.63;;
13366;SDS011;6752;52.612;13.630;2023-12-28T00:22:20;6.20;;;4.53;;
13366;SDS011;6752;52.612;13.630;2023-12-28T00:27:23;7.77;;;4.33;;
13366;SDS011;6752;52.612;13.630;2023-12-28T00:32:33;7.78;;;5.18;;
13366;SDS011;6752;52.612;13.630;2023-12-28T00:37:35;7.77;;;4.27;;
13366;SDS011;6752;52.612;13.630;2023-12-28T00:42:38;7.63;;;4.03;;
13366;SDS011;6752;52.612;13.630;2023-12-28T00:47:40;6.53;;;4.13;;
13366;SDS011;6752;52.612;13.630;2023-12-28T00:52:42;6.03;;;3.63;;
13366;SDS011;6752;52.612;13.630;2023-12-28T00:57:45;6.63;;;3.60;;
13366;SDS011;6752;52.612;13.630;2023-12-28T01:02:47;7.30;;;3.80;;
13366;SDS011;6752;52.612;13.630;2023-12-28T01:07:49;6.22;;;3.87;;
13366;SDS011;6752;52.612;13.630;2023-12-28T01:12:52;6.37;;;3.50;;
13366;SDS011;6752;52.612;13.630;2023-12-28T01:17:54;6.67;;;3.87;;
13366;SDS011;6752;52.612;13.630;2023-12-28T01:22:57;5.95;;;3.80;;
13366;SDS011;6752;52.612;13.630;2023-12-28T01:27:59;5.27;;;3.30;;
13366;SDS011;6752;52.612;13.630;2023-12-28T01:33:01;5.10;;;3.30;;
13366;SDS011;6752;52.612;13.630;2023-12-28T01:38:04;6.43;;;3.37;;
13366;SDS011;6752;52.612;13.630;2023-12-28T01:43:06;5.67;;;3.50;;
13366;SDS011;6752;52.612;13.630;2023-12-28T01:48:08;6.07;;;3.20;;
13366;SDS011;6752;52.612;13.630;2023-12-28T01:53:11;4.55;;;3.25;;
13366;SDS011;6752;52.612;13.630;2023-12-28T01:58:13;5.13;;;3.23;;
13366;SDS011;6752;52.612;13.630;2023-12-28T02:03:15;4.90;;;3.40;;
13366;SDS011;6752;52.612;13.630;2023-12-28T02:08:18;4.93;;;3.43;;
13366;SDS011;6752;52.612;13.630;2023-12-28T02:13:21;4.90;;;3.00;;
13366;SDS011;6752;52.612;13.630;2023-12-28T02:18:23;4.47;;;3.03;;
13366;SDS011;6752;52.612;13.630;2023-12-28T02:23:25;4.63;;;3.10;;
13366;SDS011;6752;52.612;13.630;2023-12-28T02:28:27;5.27;;;3.10;;
13366;SDS011;6752;52.612;13.630;2023-12-28T02:33:34;3.83;;;2.60;;
13366;SDS011;6752;52.612;13.630;2023-12-28T02:38:38;4.80;;;2.67;;
13366;SDS011;6752;52.612;13.630;2023-12-28T02:43:40;4.70;;;2.80;;
13366;SDS011;6752;52.612;13.630;2023-12-28T02:48:43;4.00;;;2.60;;
13366;SDS011;6752;52.612;13.630;2023-12-28T02:53:45;4.07;;;2.30;;
13366;SDS011;6752;52.612;13.630;2023-12-28T02:58:47;5.10;;;2.43;;
13366;SDS011;6752;52.612;13.630;2023-12-28T03:03:50;5.50;;;2.30;;
13366;SDS011;6752;52.612;13.630;2023-12-28T03:08:52;3.27;;;2.33;;
13366;SDS011;6752;52.612;13.630;2023-12-28T03:13:54;4.33;;;2.30;;
13366;SDS011;6752;52.612;13.630;2023-12-28T03:18:57;3.77;;;2.30;;
13366;SDS011;6752;52.612;13.630;2023-12-28T03:23:59;2.77;;;2.00;;
13366;SDS011;6752;52.612;13.630;2023-12-28T03:29:01;2.83;;;1.87;;
13366;SDS011;6752;52.612;13.630;2023-12-28T03:34:04;3.13;;;2.07;;
13366;SDS011;6752;52.612;13.630;2023-12-28T03:39:07;2.53;;;1.60;;
13366;SDS011;6752;52.612;13.630;2023-12-28T03:44:08;4.23;;;1.70;;
13366;SDS011;6752;52.612;13.630;2023-12-28T03:49:11;3.00;;;1.70;;
13366;SDS011;6752;52.612;13.630;2023-12-28T03:54:15;2.17;;;1.73;;
13366;SDS011;6752;52.612;13.630;2023-12-28T03:59:15;3.40;;;1.77;;
13366;SDS011;6752;52.612;13.630;2023-12-28T04:04:18;2.37;;;1.77;;
13366;SDS011;6752;52.612;13.630;2023-12-28T04:09:20;2.37;;;1.90;;
13366;SDS011;6752;52.612;13.630;2023-12-28T04:14:22;4.53;;;2.23;;
13366;SDS011;6752;52.612;13.630;2023-12-28T04:19:25;3.27;;;1.80;;
13366;SDS011;6752;52.612;13.630;2023-12-28T04:24:27;2.13;;;1.70;;
13366;SDS011;6752;52.612;13.630;2023-12-28T04:29:30;2.50;;;1.73;;
13366;SDS011;6752;52.612;13.630;2023-12-28T04:34:32;2.63;;;1.67;;
13366;SDS011;6752;52.612;13.630;2023-12-28T04:39:34;3.07;;;2.10;;
13366;SDS011;6752;52.612;13.630;2023-12-28T04:44:37;2.30;;;1.70;;
13366;SDS011;6752;52.612;13.630;2023-12-28T04:49:39;2.10;;;1.80;;
13366;SDS011;6752;52.612;13.630;2023-12-28T04:54:41;3.17;;;1.70;;
13366;SDS011;6752;52.612;13.630;2023-12-28T04:59:44;2.77;;;1.70;;
13366;SDS011;6752;52.612;13.630;2023-12-28T05:04:46;2.83;;;1.90;;
13366;SDS011;6752;52.612;13.630;2023-12-28T05:09:48;1.70;;;1.60;;
13366;SDS011;6752;52.612;13.630;2023-12-28T05:14:51;3.03;;;1.90;;
13366;SDS011;6752;52.612;13.630;2023-12-28T05:19:53;2.47;;;1.87;;
13366;SDS011;6752;52.612;13.630;2023-12-28T05:24:55;3.37;;;2.17;;
13366;SDS011;6752;52.612;13.630;2023-12-28T05:29:58;2.92;;;2.20;;
13366;SDS011;6752;52.612;13.630;2023-12-28T05:35:00;2.47;;;1.70;;
13366;SDS011;6752;52.612;13.630;2023-12-28T05:40:03;3.50;;;2.13;;
13366;SDS011;6752;52.612;13.630;2023-12-28T05:45:05;2.80;;;2.10;;
13366;SDS011;6752;52.612;13.630;2023-12-28T05:50:07;3.33;;;2.10;;
13366;SDS011;6752;52.612;13.630;2023-12-28T05:55:10;8.23;;;4.60;;
13366;SDS011;6752;52.612;13.630;2023-12-28T06:00:12;7.23;;;3.67;;
13366;SDS011;6752;52.612;13.630;2023-12-28T06:05:14;6.00;;;3.30;;
13366;SDS011;6752;52.612;13.630;2023-12-28T06:10:17;5.25;;;3.20;;
13366;SDS011;6752;52.612;13.630;2023-12-28T06:15:21;6.73;;;3.90;;
13366;SDS011;6752;52.612;13.630;2023-12-28T06:20:23;13.13;;;6.63;;
13366;SDS011;6752;52.612;13.630;2023-12-28T06:25:26;4.37;;;2.37;;
13366;SDS011;6752;52.612;13.630;2023-12-28T06:30:28;4.50;;;2.50;;
13366;SDS011;6752;52.612;13.630;2023-12-28T06:35:30;2.60;;;1.90;;
13366;SDS011;6752;52.612;13.630;2023-12-28T06:40:33;2.67;;;1.97;;
13366;SDS011;6752;52.612;13.630;2023-12-28T06:45:35;2.67;;;1.97;;
13366;SDS011;6752;52.612;13.630;2023-12-28T06:50:37;3.27;;;2.00;;
13366;SDS011;6752;52.612;13.630;2023-12-28T06:55:40;2.70;;;2.00;;
13366;SDS011;6752;52.612;13.630;2023-12-28T07:00:42;3.20;;;2.10;;
13366;SDS011;6752;52.612;13.630;2023-12-28T07:05:45;3.50;;;2.40;;
13366;SDS011;6752;52.612;13.630;2023-12-28T07:10:49;2.57;;;1.80;;
13366;SDS011;6752;52.612;13.630;2023-12-28T07:15:51;3.17;;;2.03;;
13366;SDS011;6752;52.612;13.630;2023-12-28T07:20:54;5.67;;;3.33;;
13366;SDS011;6752;52.612;13.630;2023-12-28T07:25:57;3.50;;;2.30;;
13366;SDS011;6752;52.612;13.630;2023-12-28T07:30:58;2.37;;;1.70;;
13366;SDS011;6752;52.612;13.630;2023-12-28T07:36:01;2.58;;;2.00;;
13366;SDS011;6752;52.612;13.630;2023-12-28T07:41:06;2.47;;;1.73;;
13366;SDS011;6752;52.612;13.630;2023-12-28T07:46:08;2.53;;;2.05;;
13366;SDS011;6752;52.612;13.630;2023-12-28T07:51:12;4.00;;;1.90;;
13366;SDS011;6752;52.612;13.630;2023-12-28T07:56:13;2.47;;;1.80;;
13366;SDS011;6752;52.612;13.630;2023-12-28T08:01:15;2.70;;;2.17;;
13366;SDS011;6752;52.612;13.630;2023-12-28T08:06:20;3.70;;;1.87;;
13366;SDS011;6752;52.612;13.630;2023-12-28T08:11:22;2.65;;;2.12;;
13366;SDS011;6752;52.612;13.630;2023-12-28T08:16:25;3.40;;;2.20;;
13366;SDS011;6752;52.612;13.630;2023-12-28T08:21:27;1.97;;;1.67;;
13366;SDS011;6752;52.612;13.630;2023-12-28T08:26:29;3.60;;;1.90;;
13366;SDS011;6752;52.612;13.630;2023-12-28T08:31:32;3.00;;;1.70;;
13366;SDS011;6752;52.612;13.630;2023-12-28T08:36:34;2.70;;;1.70;;
13366;SDS011;6752;52.612;13.630;2023-12-28T08:41:36;2.47;;;1.83;;
13366;SDS011;6752;52.612;13.630;2023-12-28T08:46:39;2.83;;;2.20;;
13366;SDS011;6752;52.612;13.630;2023-12-28T08:51:41;4.33;;;2.30;;
13366;SDS011;6752;52.612;13.630;2023-12-28T08:56:43;2.63;;;2.00;;
13366;SDS011;6752;52.612;13.630;2023-12-28T09:01:46;2.53;;;2.10;;
13366;SDS011;6752;52.612;13.630;2023-12-28T09:06:48;2.87;;;1.90;;
13366;SDS011;6752;52.612;13.630;2023-12-28T09:11:50;3.60;;;2.17;;
13366;SDS011;6752;52.612;13.630;2023-12-28T09:16:53;2.95;;;2.03;;
13366;SDS011;6752;52.612;13.630;2023-12-28T09:21:55;4.70;;;2.20;;
13366;SDS011;6752;52.612;13.630;2023-12-28T09:26:57;3.33;;;2.37;;
13366;SDS011;6752;52.612;13.630;2023-12-28T09:32:00;2.37;;;2.07;;
13366;SDS011;6752;52.612;13.630;2023-12-28T09:37:02;2.80;;;2.10;;
13366;SDS011;6752;52.612;13.630;2023-12-28T09:42:06;3.87;;;2.20;;
13366;SDS011;6752;52.612;13.630;2023-12-28T09:47:07;3.80;;;2.23;;
13366;SDS011;6752;52.612;13.630;2023-12-28T09:52:09;2.70;;;2.20;;
13366;SDS011;6752;52.612;13.630;2023-12-28T09:57:12;4.47;;;2.50;;
13366;SDS011;6752;52.612;13.630;2023-12-28T10:02:14;4.67;;;2.47;;
13366;SDS011;6752;52.612;13.630;2023-12-28T10:07:16;3.17;;;2.07;;
13366;SDS011;6752;52.612;13.630;2023-12-28T10:12:19;4.33;;;2.30;;
13366;SDS011;6752;52.612;13.630;2023-12-28T10:17:21;3.53;;;2.43;;
13366;SDS011;6752;52.612;13.630;2023-12-28T10:22:23;2.53;;;2.13;;
13366;SDS011;6752;52.612;13.630;2023-12-28T10:27:26;2.77;;;2.10;;
13366;SDS011;6752;52.612;13.630;2023-12-28T10:32:28;3.53;;;2.37;;
13366;SDS011;6752;52.612;13.630;2023-12-28T10:37:31;4.23;;;2.33;;
13366;SDS011;6752;52.612;13.630;2023-12-28T10:42:33;4.53;;;2.50;;
13366;SDS011;6752;52.612;13.630;2023-12-28T10:47:38;4.03;;;2.40;;
13366;SDS011;6752;52.612;13.630;2023-12-28T10:52:40;5.07;;;2.90;;
13366;SDS011;6752;52.612;13.630;2023-12-28T10:57:49;4.23;;;2.50;;
13366;SDS011;6752;52.612;13.630;2023-12-28T11:02:48;2.43;;;2.20;;
13366;SDS011;6752;52.612;13.630;2023-12-28T11:07:50;3.30;;;2.63;;
13366;SDS011;6752;52.612;13.630;2023-12-28T11:12:56;3.90;;;2.73;;
13366;SDS011;6752;52.612;13.630;2023-12-28T11:17:58;3.70;;;2.30;;
13366;SDS011;6752;52.612;13.630;2023-12-28T11:23:00;5.20;;;2.80;;
13366;SDS011;6752;52.612;13.630;2023-12-28T11:28:12;2.87;;;2.20;;
13366;SDS011;6752;52.612;13.630;2023-12-28T11:33:14;3.40;;;2.37;;
13366;SDS011;6752;52.612;13.630;2023-12-28T11:38:16;3.50;;;2.53;;
13366;SDS011;6752;52.612;13.630;2023-12-28T11:43:19;2.90;;;2.37;;
13366;SDS011;6752;52.612;13.630;2023-12-28T11:48:27;4.07;;;2.80;;
13366;SDS011;6752;52.612;13.630;2023-12-28T11:53:29;5.17;;;2.50;;
13366;SDS011;6752;52.612;13.630;2023-12-28T11:58:31;5.03;;;2.73;;
13366;SDS011;6752;52.612;13.630;2023-12-28T12:03:34;2.87;;;2.30;;
13366;SDS011;6752;52.612;13.630;2023-12-28T12:08:36;4.23;;;2.40;;
13366;SDS011;6752;52.612;13.630;2023-12-28T12:13:38;4.33;;;2.37;;
13366;SDS011;6752;52.612;13.630;2023-12-28T12:18:41;4.83;;;2.60;;
13366;SDS011;6752;52.612;13.630;2023-12-28T12:23:43;2.83;;;2.20;;
13366;SDS011;6752;52.612;13.630;2023-12-28T12:28:45;3.43;;;2.17;;
13366;SDS011;6752;52.612;13.630;2023-12-28T12:33:48;5.07;;;2.50;;
13366;SDS011;6752;52.612;13.630;2023-12-28T12:38:50;3.03;;;2.30;;
13366;SDS011;6752;52.612;13.630;2023-12-28T12:43:52;4.50;;;2.10;;
13366;SDS011;6752;52.612;13.630;2023-12-28T12:48:55;4.30;;;2.40;;
13366;SDS011;6752;52.612;13.630;2023-12-28T12:54:02;3.23;;;2.50;;
13366;SDS011;6752;52.612;13.630;2023-12-28T12:58:59;3.80;;;2.30;;
13366;SDS011;6752;52.612;13.630;2023-12-28T13:04:02;2.43;;;2.10;;
13366;SDS011;6752;52.612;13.630;2023-12-28T13:09:04;2.40;;;2.17;;
13366;SDS011;6752;52.612;13.630;2023-12-28T13:14:07;3.20;;;2.23;;
13366;SDS011;6752;52.612;13.630;2023-12-28T13:19:09;3.27;;;2.30;;
13366;SDS011;6752;52.612;13.630;2023-12-28T13:24:11;3.43;;;2.17;;
13366;SDS011;6752;52.612;13.630;2023-12-28T13:29:14;5.13;;;2.07;;
13366;SDS011;6752;52.612;13.630;2023-12-28T13:34:16;4.10;;;2.47;;
13366;SDS011;6752;52.612;13.630;2023-12-28T13:39:18;3.10;;;1.97;;
13366;SDS011;6752;52.612;13.630;2023-12-28T13:44:21;4.07;;;2.00;;
13366;SDS011;6752;52.612;13.630;2023-12-28T13:49:23;4.40;;;2.60;;
13366;SDS011;6752;52.612;13.630;2023-12-28T13:54:26;3.90;;;2.43;;
13366;SDS011;6752;52.612;13.630;2023-12-28T13:59:29;4.17;;;2.10;;
13366;SDS011;6752;52.612;13.630;2023-12-28T14:04:31;5.60;;;2.37;;
13366;SDS011;6752;52.612;13.630;2023-12-28T14:09:33;3.60;;;2.20;;
13366;SDS011;6752;52.612;13.630;2023-12-28T14:14:36;5.70;;;2.50;;
13366;SDS011;6752;52.612;13.630;2023-12-28T14:19:38;4.40;;;2.20;;
13366;SDS011;6752;52.612;13.630;2023-12-28T14:24:41;2.57;;;2.03;;
13366;SDS011;6752;52.612;13.630;2023-12-28T14:29:43;4.47;;;2.60;;
13366;SDS011;6752;52.612;13.630;2023-12-28T14:34:45;3.03;;;2.30;;
13366;SDS011;6752;52.612;13.630;2023-12-28T14:39:48;4.30;;;2.97;;
13366;SDS011;6752;52.612;13.630;2023-12-28T14:44:50;5.45;;;4.50;;
13366;SDS011;6752;52.612;13.630;2023-12-28T14:49:52;4.82;;;3.50;;
13366;SDS011;6752;52.612;13.630;2023-12-28T14:54:55;5.97;;;4.20;;
13366;SDS011;6752;52.612;13.630;2023-12-28T14:59:59;5.77;;;2.80;;
13366;SDS011;6752;52.612;13.630;2023-12-28T15:05:01;7.30;;;3.30;;
13366;SDS011;6752;52.612;13.630;2023-12-28T15:10:03;5.70;;;3.90;;
13366;SDS011;6752;52.612;13.630;2023-12-28T15:15:06;4.77;;;2.90;;
13366;SDS011;6752;52.612;13.630;2023-12-28T15:20:08;5.55;;;3.33;;
13366;SDS011;6752;52.612;13.630;2023-12-28T15:25:11;4.57;;;2.87;;
13366;SDS011;6752;52.612;13.630;2023-12-28T15:30:13;3.47;;;2.50;;
13366;SDS011;6752;52.612;13.630;2023-12-28T15:35:15;3.50;;;2.27;;
13366;SDS011;6752;52.612;13.630;2023-12-28T15:40:18;4.10;;;2.50;;
13366;SDS011;6752;52.612;13.630;2023-12-28T15:45:20;5.10;;;2.60;;
13366;SDS011;6752;52.612;13.630;2023-12-28T15:50:23;5.13;;;2.30;;
13366;SDS011;6752;52.612;13.630;2023-12-28T15:55:26;4.97;;;2.30;;
13366;SDS011;6752;52.612;13.630;2023-12-28T16:00:28;3.90;;;2.40;;
13366;SDS011;6752;52.612;13.630;2023-12-28T16:05:30;4.53;;;2.50;;
13366;SDS011;6752;52.612;13.630;2023-12-28T16:10:33;3.70;;;2.70;;
13366;SDS011;6752;52.612;13.630;2023-12-28T16:15:35;4.63;;;2.20;;
13366;SDS011;6752;52.612;13.630;2023-12-28T16:20:37;3.83;;;2.20;;
13366;SDS011;6752;52.612;13.630;2023-12-28T16:25:42;5.10;;;2.70;;
13366;SDS011;6752;52.612;13.630;2023-12-28T16:30:47;4.10;;;2.40;;
13366;SDS011;6752;52.612;13.630;2023-12-28T16:35:49;4.33;;;2.43;;
13366;SDS011;6752;52.612;13.630;2023-12-28T16:40:52;3.87;;;2.50;;
13366;SDS011;6752;52.612;13.630;2023-12-28T16:45:54;4.17;;;3.00;;
13366;SDS011;6752;52.612;13.630;2023-12-28T16:50:56;4.20;;;2.67;;
13366;SDS011;6752;52.612;13.630;2023-12-28T16:55:59;4.67;;;2.60;;
13366;SDS011;6752;52.612;13.630;2023-12-28T17:01:01;3.40;;;2.57;;
13366;SDS011;6752;52.612;13.630;2023-12-28T17:06:03;4.73;;;2.80;;
13366;SDS011;6752;52.612;13.630;2023-12-28T17:11:06;3.95;;;2.62;;
13366;SDS011;6752;52.612;13.630;2023-12-28T17:16:08;3.93;;;2.97;;
13366;SDS011;6752;52.612;13.630;2023-12-28T17:21:11;3.30;;;2.00;;
13366;SDS011;6752;52.612;13.630;2023-12-28T17:26:22;4.65;;;2.55;;
13366;SDS011;6752;52.612;13.630;2023-12-28T17:31:24;3.55;;;2.40;;
13366;SDS011;6752;52.612;13.630;2023-12-28T17:36:27;4.03;;;2.50;;
13366;SDS011;6752;52.612;13.630;2023-12-28T17:41:29;4.23;;;1.90;;
13366;SDS011;6752;52.612;13.630;2023-12-28T17:46:47;4.47;;;2.10;;
13366;SDS011;6752;52.612;13.630;2023-12-28T17:51:49;2.83;;;2.13;;
13366;SDS011;6752;52.612;13.630;2023-12-28T17:56:51;3.97;;;2.33;;
13366;SDS011;6752;52.612;13.630;2023-12-28T18:01:54;4.23;;;2.40;;
13366;SDS011;6752;52.612;13.630;2023-12-28T18:06:56;2.67;;;2.20;;
13366;SDS011;6752;52.612;13.630;2023-12-28T18:11:58;2.90;;;2.20;;
13366;SDS011;6752;52.612;13.630;2023-12-28T18:17:01;3.77;;;2.27;;
13366;SDS011;6752;52.612;13.630;2023-12-28T18:22:03;3.17;;;2.10;;
13366;SDS011;6752;52.612;13.630;2023-12-28T18:27:05;4.33;;;2.13;;
13366;SDS011;6752;52.612;13.630;2023-12-28T18:32:08;5.80;;;3.97;;
13366;SDS011;6752;52.612;13.630;2023-12-28T18:37:10;5.03;;;2.60;;
13366;SDS011;6752;52.612;13.630;2023-12-28T18:42:12;4.03;;;2.30;;
13366;SDS011;6752;52.612;13.630;2023-12-28T18:47:15;4.33;;;2.30;;
13366;SDS011;6752;52.612;13.630;2023-12-28T18:52:17;3.83;;;2.43;;
13366;SDS011;6752;52.612;13.630;2023-12-28T18:57:19;4.57;;;2.60;;
13366;SDS011;6752;52.612;13.630;2023-12-28T19:02:22;4.20;;;2.20;;
13366;SDS011;6752;52.612;13.630;2023-12-28T19:07:24;5.93;;;2.60;;
13366;SDS011;6752;52.612;13.630;2023-12-28T19:12:26;4.20;;;2.50;;
13366;SDS011;6752;52.612;13.630;2023-12-28T19:17:29;4.77;;;2.90;;
13366;SDS011;6752;52.612;13.630;2023-12-28T19:22:31;4.30;;;2.90;;
13366;SDS011;6752;52.612;13.630;2023-12-28T19:27:34;3.30;;;2.27;;
13366;SDS011;6752;52.612;13.630;2023-12-28T19:32:36;3.60;;;2.47;;
13366;SDS011;6752;52.612;13.630;2023-12-28T19:37:38;3.73;;;2.73;;
13366;SDS011;6752;52.612;13.630;2023-12-28T19:42:41;4.87;;;2.60;;
13366;SDS011;6752;52.612;13.630;2023-12-28T19:47:43;4.30;;;2.63;;
13366;SDS011;6752;52.612;13.630;2023-12-28T19:52:45;3.20;;;2.67;;
13366;SDS011;6752;52.612;13.630;2023-12-28T19:57:48;4.27;;;3.00;;
13366;SDS011;6752;52.612;13.630;2023-12-28T20:02:50;4.73;;;3.00;;
13366;SDS011;6752;52.612;13.630;2023-12-28T20:07:52;4.87;;;2.90;;
13366;SDS011;6752;52.612;13.630;2023-12-28T20:12:55;5.27;;;2.90;;
13366;SDS011;6752;52.612;13.630;2023-12-28T20:17:57;4.70;;;2.93;;
13366;SDS011;6752;52.612;13.630;2023-12-28T20:22:59;4.25;;;3.30;;
13366;SDS011;6752;52.612;13.630;2023-12-28T20:28:02;5.07;;;3.20;;
13366;SDS011;6752;52.612;13.630;2023-12-28T20:33:04;5.63;;;2.80;;
13366;SDS011;6752;52.612;13.630;2023-12-28T20:38:07;6.07;;;2.93;;
13366;SDS011;6752;52.612;13.630;2023-12-28T20:43:09;4.85;;;3.00;;
13366;SDS011;6752;52.612;13.630;2023-12-28T20:48:11;5.73;;;3.20;;
13366;SDS011;6752;52.612;13.630;2023-12-28T20:53:14;5.90;;;3.40;;
13366;SDS011;6752;52.612;13.630;2023-12-28T20:58:16;4.73;;;2.93;;
13366;SDS011;6752;52.612;13.630;2023-12-28T21:03:18;5.30;;;3.05;;
13366;SDS011;6752;52.612;13.630;2023-12-28T21:08:21;3.47;;;2.60;;
13366;SDS011;6752;52.612;13.630;2023-12-28T21:13:26;3.83;;;2.90;;
13366;SDS011;6752;52.612;13.630;2023-12-28T21:18:28;4.17;;;3.03;;
13366;SDS011;6752;52.612;13.630;2023-12-28T21:23:31;3.53;;;2.70;;
13366;SDS011;6752;52.612;13.630;2023-12-28T21:28:33;4.60;;;2.73;;
13366;SDS011;6752;52.612;13.630;2023-12-28T21:33:36;3.83;;;2.83;;
13366;SDS011;6752;52.612;13.630;2023-12-28T21:38:38;4.43;;;3.03;;
13366;SDS011;6752;52.612;13.630;2023-12-28T21:43:40;4.47;;;2.97;;
13366;SDS011;6752;52.612;13.630;2023-12-28T21:48:43;5.03;;;2.90;;
13366;SDS011;6752;52.612;13.630;2023-12-28T21:53:45;3.87;;;2.60;;
13366;SDS011;6752;52.612;13.630;2023-12-28T21:58:47;3.60;;;2.53;;
13366;SDS011;6752;52.612;13.630;2023-12-28T22:03:50;3.57;;;2.60;;
13366;SDS011;6752;52.612;13.630;2023-12-28T22:08:52;5.23;;;2.60;;
13366;SDS011;6752;52.612;13.630;2023-12-28T22:13:54;5.50;;;2.90;;
13366;SDS011;6752;52.612;13.630;2023-12-28T22:18:57;5.37;;;2.70;;
13366;SDS011;6752;52.612;13.630;2023-12-28T22:23:59;5.57;;;2.90;;
13366;SDS011;6752;52.612;13.630;2023-12-28T22:29:02;4.20;;;2.50;;
13366;SDS011;6752;52.612;13.630;2023-12-28T22:34:04;4.67;;;2.53;;
13366;SDS011;6752;52.612;13.630;2023-12-28T22:39:06;3.80;;;2.43;;
13366;SDS011;6752;52.612;13.630;2023-12-28T22:44:09;5.23;;;2.60;;
13366;SDS011;6752;52.612;13.630;2023-12-28T22:49:11;3.97;;;2.40;;
13366;SDS011;6752;52.612;13.630;2023-12-28T22:54:13;3.87;;;2.50;;
13366;SDS011;6752;52.612;13.630;2023-12-28T22:59:16;3.63;;;2.37;;
13366;SDS011;6752;52.612;13.630;2023-12-28T23:04:18;3.03;;;2.20;;
13366;SDS011;6752;52.612;13.630;2023-12-28T23:09:20;4.30;;;2.33;;
13366;SDS011;6752;52.612;13.630;2023-12-28T23:14:23;4.67;;;2.70;;
13366;SDS011;6752;52.612;13.630;2023-12-28T23:19:25;3.37;;;2.37;;
13366;SDS011;6752;52.612;13.630;2023-12-28T23:24:27;5.10;;;2.67;;
13366;SDS011;6752;52.612;13.630;2023-12-28T23:29:30;3.60;;;1.93;;
13366;SDS011;6752;52.612;13.630;2023-12-28T23:34:32;3.27;;;2.17;;
13366;SDS011;6752;52.612;13.630;2023-12-28T23:39:35;6.37;;;2.60;;
13366;SDS011;6752;52.612;13.630;2023-12-28T23:44:37;2.60;;;2.00;;
13366;SDS011;6752;52.612;13.630;2023-12-28T23:49:40;2.60;;;2.03;;
13366;SDS011;6752;52.612;13.630;2023-12-28T23:54:42;3.83;;;2.33;;
13366;SDS011;6752;52.612;13.630;2023-12-28T23:59:44;3.33;;;2.13;;
